Time;durP1;ratioP1;P1;durP2;ratioP2;P2;SDS_P1;SDS_P2;PMS_P1;PMS_P2;Temp;Humidity;BMP_temperature;BMP_pressure;BME280_temperature;BME280_humidity;BME280_pressure;Samples;Min_cycle;Max_cycle;Signal;HPM_P1;HPM_P2
2024/01/16 00:00:16;;;;;;;7.35;4.78;;;-0.10;1.00;;;;;;7366579;19;20025;-70
2024/01/16 00:02:46;;;;;;;7.53;4.78;;;-0.10;1.00;;;;;;7366954;19;20017;-69
2024/01/16 00:05:19;;;;;;;8.63;5.40;;;-0.20;1.00;;;;;;7364358;19;20027;-69
2024/01/16 00:07:50;;;;;;;7.53;4.68;;;-0.10;1.00;;;;;;7360151;19;20010;-70
2024/01/16 00:10:20;;;;;;;7.80;4.63;;;-0.20;1.00;;;;;;7366192;19;20021;-70
2024/01/16 00:12:50;;;;;;;7.30;4.65;;;-0.20;1.00;;;;;;7365988;19;20037;-70
2024/01/16 00:15:20;;;;;;;7.82;4.80;;;-0.30;1.00;;;;;;7365279;19;20010;-70
2024/01/16 00:17:51;;;;;;;7.15;4.50;;;-0.30;1.00;;;;;;7359472;19;20018;-70
2024/01/16 00:20:25;;;;;;;7.85;4.43;;;-0.30;1.00;;;;;;7365969;19;20021;-70
2024/01/16 00:22:56;;;;;;;8.00;4.30;;;-0.40;1.00;;;;;;7365977;19;20471;-70
2024/01/16 00:25:25;;;;;;;6.63;4.32;;;-0.50;1.00;;;;;;7365171;19;20022;-69
2024/01/16 00:27:57;;;;;;;7.57;4.55;;;-0.50;1.00;;;;;;7359048;19;20582;-70
2024/01/16 00:30:27;;;;;;;7.95;4.60;;;-0.60;1.00;;;;;;7364526;19;21025;-69
2024/01/16 00:32:57;;;;;;;9.02;4.75;;;-0.60;1.00;;;;;;7365609;19;20064;-70
2024/01/16 00:35:29;;;;;;;7.90;4.43;;;-0.60;1.00;;;;;;7364132;19;20554;-70
2024/01/16 00:38:00;;;;;;;7.10;4.63;;;-0.60;1.00;;;;;;7359570;19;20025;-70
2024/01/16 00:40:30;;;;;;;6.75;4.03;;;-0.60;1.00;;;;;;7364099;19;20026;-69
2024/01/16 00:43:00;;;;;;;9.25;4.93;;;-0.70;1.00;;;;;;7366680;19;20022;-69
2024/01/16 00:45:30;;;;;;;9.07;4.82;;;-0.60;1.00;;;;;;7365615;19;20018;-70
2024/01/16 00:48:00;;;;;;;8.48;4.72;;;-0.70;1.00;;;;;;7358002;19;20443;-69
2024/01/16 00:50:33;;;;;;;7.00;5.00;;;-0.70;1.00;;;;;;7364588;19;20022;-69
2024/01/16 00:53:03;;;;;;;10.00;5.03;;;-0.80;1.00;;;;;;7365363;19;20095;-69
2024/01/16 00:55:33;;;;;;;9.50;5.55;;;-0.80;1.00;;;;;;7363612;19;20495;-68
2024/01/16 00:58:03;;;;;;;11.63;5.07;;;-0.80;1.00;;;;;;7358017;19;20010;-69
2024/01/16 01:00:34;;;;;;;9.43;4.88;;;-0.80;1.00;;;;;;7364628;19;20011;-69
2024/01/16 01:03:05;;;;;;;9.77;4.93;;;-0.90;1.00;;;;;;7365120;19;20011;-69
2024/01/16 01:05:38;;;;;;;9.23;4.70;;;-0.70;1.00;;;;;;7364039;19;20021;-70
2024/01/16 01:08:09;;;;;;;8.65;5.07;;;-0.80;1.00;;;;;;7357181;19;20117;-70
2024/01/16 01:10:40;;;;;;;7.78;4.70;;;-0.80;1.00;;;;;;7363700;19;20015;-69
2024/01/16 01:13:10;;;;;;;8.25;5.28;;;-0.70;1.00;;;;;;7365647;19;20018;-71
2024/01/16 01:15:40;;;;;;;9.02;4.90;;;-0.80;1.00;;;;;;7367415;19;20014;-69
2024/01/16 01:18:10;;;;;;;9.10;5.85;;;-0.80;1.00;;;;;;7361783;19;20007;-70
2024/01/16 01:20:43;;;;;;;8.48;4.65;;;-0.80;1.00;;;;;;7374385;19;20090;-69
2024/01/16 01:23:13;;;;;;;9.00;5.13;;;-0.80;1.00;;;;;;7369373;19;20780;-71
2024/01/16 01:25:43;;;;;;;8.82;5.00;;;-0.80;1.00;;;;;;7370128;19;20010;-69
2024/01/16 01:28:13;;;;;;;8.68;5.28;;;-0.90;1.00;;;;;;7363963;19;20014;-69
2024/01/16 01:30:43;;;;;;;8.60;5.38;;;-0.90;1.00;;;;;;7368520;19;20028;-69
2024/01/16 01:33:14;;;;;;;7.32;4.60;;;-0.90;1.00;;;;;;7371375;19;20010;-71
2024/01/16 01:35:47;;;;;;;8.73;5.30;;;-0.90;1.00;;;;;;7369866;19;20664;-69
2024/01/16 01:38:19;;;;;;;6.28;5.07;;;-0.90;1.00;;;;;;7364691;19;20014;-70
2024/01/16 01:40:49;;;;;;;9.02;5.05;;;-0.90;1.00;;;;;;7369896;19;20747;-69
2024/01/16 01:43:23;;;;;;;7.43;5.55;;;-0.90;1.00;;;;;;7370751;19;20010;-70
2024/01/16 01:46:08;;;;;;;12.13;5.68;;;-0.80;1.00;;;;;;7369810;19;20039;-69
2024/01/16 01:48:40;;;;;;;11.05;5.00;;;-0.80;1.00;;;;;;7368236;19;20074;-70
2024/01/16 01:51:14;;;;;;;9.25;5.32;;;-0.80;1.00;;;;;;7368123;19;20007;-70
2024/01/16 01:53:46;;;;;;;12.38;5.45;;;-0.90;1.00;;;;;;7368410;19;20021;-69
2024/01/16 01:56:18;;;;;;;9.68;5.22;;;-0.90;1.00;;;;;;7367726;19;20142;-70
2024/01/16 01:58:50;;;;;;;15.50;5.60;;;-0.80;1.00;;;;;;7367870;19;20014;-70
2024/01/16 02:01:21;;;;;;;6.80;5.07;;;-0.90;1.00;;;;;;7369307;19;20010;-69
2024/01/16 02:03:53;;;;;;;8.65;5.20;;;-0.90;1.00;;;;;;7369271;19;20521;-69
2024/01/16 02:06:26;;;;;;;9.45;5.50;;;-0.80;1.00;;;;;;7366382;19;20011;-69
2024/01/16 02:08:56;;;;;;;9.10;5.40;;;-0.90;1.00;;;;;;7369251;19;20050;-69
2024/01/16 02:11:27;;;;;;;7.28;4.90;;;-0.90;1.00;;;;;;7370225;19;20379;-70
2024/01/16 02:13:57;;;;;;;8.93;4.80;;;-0.90;1.00;;;;;;7369705;19;20026;-71
2024/01/16 02:16:28;;;;;;;9.65;5.07;;;-0.90;1.00;;;;;;7364581;19;20017;-70
2024/01/16 02:18:58;;;;;;;8.15;5.13;;;-0.90;1.00;;;;;;7370122;19;20022;-70
2024/01/16 02:21:33;;;;;;;7.68;5.22;;;-0.90;1.00;;;;;;7370542;19;20006;-69
2024/01/16 02:24:08;;;;;;;10.10;5.50;;;-1.00;1.00;;;;;;7371124;19;20006;-69
2024/01/16 02:26:38;;;;;;;8.57;4.93;;;-1.00;1.00;;;;;;7365191;19;20401;-71
2024/01/16 02:29:08;;;;;;;10.32;5.28;;;-1.00;1.00;;;;;;7369048;19;20094;-69
2024/01/16 02:31:38;;;;;;;7.97;5.28;;;-0.90;1.00;;;;;;7367797;19;20010;-69
2024/01/16 02:34:08;;;;;;;9.60;5.60;;;-0.90;1.00;;;;;;7369693;19;20014;-69
2024/01/16 02:36:38;;;;;;;12.73;5.88;;;-1.00;1.00;;;;;;7362234;19;20013;-69
2024/01/16 02:39:11;;;;;;;6.95;4.80;;;-0.90;1.00;;;;;;7368869;19;20355;-70
2024/01/16 02:41:41;;;;;;;8.65;5.07;;;-0.90;1.00;;;;;;7367831;19;20031;-70
2024/01/16 02:44:11;;;;;;;8.40;5.22;;;-0.90;1.00;;;;;;7367266;19;20171;-70
2024/01/16 02:46:41;;;;;;;9.40;5.60;;;-1.00;1.00;;;;;;7362408;19;20089;-69
2024/01/16 02:49:11;;;;;;;11.05;5.50;;;-1.00;1.00;;;;;;7346109;19;20030;-68
2024/01/16 02:51:41;;;;;;;8.27;5.15;;;-1.10;1.00;;;;;;7367297;19;20375;-69
2024/01/16 02:54:14;;;;;;;11.02;5.15;;;-1.10;1.00;;;;;;7368237;19;20023;-70
2024/01/16 02:56:44;;;;;;;8.77;4.97;;;-1.10;1.00;;;;;;7364861;19;20042;-69
2024/01/16 02:59:14;;;;;;;8.98;5.43;;;-1.10;1.00;;;;;;7369828;19;20011;-70
2024/01/16 03:01:44;;;;;;;7.22;5.30;;;-1.10;1.00;;;;;;7366256;19;20010;-70
2024/01/16 03:04:14;;;;;;;7.43;4.90;;;-1.20;1.00;;;;;;7366333;19;20091;-69
2024/01/16 03:06:44;;;;;;;9.45;5.10;;;-1.30;1.00;;;;;;7361598;19;20018;-70
2024/01/16 03:09:18;;;;;;;8.57;5.00;;;-1.30;1.00;;;;;;7366584;19;20521;-70
2024/01/16 03:11:48;;;;;;;10.48;5.40;;;-1.40;1.00;;;;;;7368497;19;20743;-69
2024/01/16 03:14:18;;;;;;;10.63;5.75;;;-1.30;1.00;;;;;;7365309;19;20043;-69
2024/01/16 03:16:48;;;;;;;10.35;5.32;;;-1.30;1.00;;;;;;7360000;19;20014;-69
2024/01/16 03:19:18;;;;;;;10.55;5.50;;;-1.30;1.00;;;;;;7368029;19;20013;-69
2024/01/16 03:21:49;;;;;;;10.00;6.10;;;-1.30;1.00;;;;;;7367832;19;20349;-68
2024/01/16 03:24:21;;;;;;;7.57;4.95;;;-1.30;1.00;;;;;;7365100;19;20056;-69
2024/01/16 03:26:52;;;;;;;8.95;5.50;;;-1.30;1.00;;;;;;7353577;19;20028;-71
2024/01/16 03:29:22;;;;;;;7.68;4.80;;;-1.40;1.00;;;;;;7366258;19;20235;-69
2024/01/16 03:31:53;;;;;;;11.20;5.82;;;-1.40;1.00;;;;;;7367417;19;20040;-69
2024/01/16 03:34:23;;;;;;;7.55;5.10;;;-1.40;1.00;;;;;;7370168;19;21289;-69
2024/01/16 03:36:54;;;;;;;9.25;4.88;;;-1.40;1.00;;;;;;7362437;19;20761;-70
2024/01/16 03:39:26;;;;;;;10.23;5.60;;;-1.30;1.00;;;;;;7366409;19;20006;-69
2024/01/16 03:41:56;;;;;;;9.05;4.90;;;-1.40;1.00;;;;;;7364773;19;20078;-69
2024/01/16 03:44:26;;;;;;;9.70;5.80;;;-1.40;1.00;;;;;;7366397;19;20479;-68
2024/01/16 03:46:57;;;;;;;10.23;4.72;;;-1.40;1.00;;;;;;7361230;19;20017;-69
2024/01/16 03:49:27;;;;;;;10.48;6.25;;;-1.50;1.00;;;;;;7365634;19;20011;-69
2024/01/16 03:51:57;;;;;;;7.97;4.97;;;-1.50;1.00;;;;;;7366983;19;20352;-70
2024/01/16 03:54:29;;;;;;;9.50;5.53;;;-1.60;1.00;;;;;;7367100;19;20018;-69
2024/01/16 03:56:59;;;;;;;8.23;5.28;;;-1.70;1.00;;;;;;7358655;19;20046;-70
2024/01/16 03:59:29;;;;;;;9.88;4.85;;;-1.70;1.00;;;;;;7366509;19;20033;-70
2024/01/16 04:02:00;;;;;;;8.02;4.80;;;-1.80;1.00;;;;;;7362914;19;20027;-69
2024/01/16 04:04:30;;;;;;;11.27;5.18;;;-1.80;1.00;;;;;;7365494;19;20039;-70
2024/01/16 04:07:00;;;;;;;7.15;4.90;;;-1.80;1.00;;;;;;7360880;19;20014;-69
2024/01/16 04:09:32;;;;;;;11.55;5.85;;;-1.90;1.00;;;;;;7364528;19;20673;-69
2024/01/16 04:12:02;;;;;;;7.43;4.80;;;-1.90;1.00;;;;;;7366082;19;20045;-69
2024/01/16 04:14:32;;;;;;;8.23;5.03;;;-1.90;1.00;;;;;;7365590;19;20039;-69
2024/01/16 04:17:02;;;;;;;8.68;5.50;;;-1.90;1.00;;;;;;7358562;19;20097;-69
2024/01/16 04:19:34;;;;;;;11.18;5.38;;;-2.00;1.00;;;;;;7364049;19;20014;-68
2024/01/16 04:22:04;;;;;;;9.32;5.15;;;-2.00;1.00;;;;;;7365632;19;20727;-69
2024/01/16 04:24:37;;;;;;;9.18;5.95;;;-2.00;1.00;;;;;;7365089;19;20034;-68
2024/01/16 04:27:07;;;;;;;10.65;5.38;;;-2.10;1.00;;;;;;7359390;19;20717;-70
2024/01/16 04:29:39;;;;;;;11.15;5.25;;;-2.10;1.00;;;;;;7363320;19;20439;-70
2024/01/16 04:32:10;;;;;;;8.50;5.45;;;-2.20;1.00;;;;;;7359809;19;20106;-70
2024/01/16 04:34:41;;;;;;;14.18;5.90;;;-2.20;1.00;;;;;;7360417;19;20010;-70
2024/01/16 04:37:11;;;;;;;9.65;4.95;;;-2.20;1.00;;;;;;7354537;19;20492;-68
2024/01/16 04:39:45;;;;;;;9.23;5.10;;;-2.20;1.00;;;;;;7360023;19;20014;-68
2024/01/16 04:42:17;;;;;;;10.02;5.25;;;-2.20;1.00;;;;;;7360284;19;20011;-70
2024/01/16 04:44:49;;;;;;;9.38;4.97;;;-2.20;1.00;;;;;;7360723;19;21375;-68
2024/01/16 04:47:20;;;;;;;11.45;5.50;;;-2.20;1.00;;;;;;7349728;19;20021;-68
2024/01/16 04:49:50;;;;;;;13.05;5.22;;;-2.30;1.00;;;;;;7358581;19;20010;-70
2024/01/16 04:52:22;;;;;;;9.18;4.97;;;-2.30;1.00;;;;;;7358870;19;20014;-70
2024/01/16 04:54:55;;;;;;;10.85;5.10;;;-2.30;1.00;;;;;;7363135;19;20504;-69
2024/01/16 04:57:26;;;;;;;11.90;5.90;;;-2.30;1.00;;;;;;7358718;19;20383;-69
2024/01/16 04:59:57;;;;;;;7.32;4.88;;;-2.40;1.00;;;;;;7363171;19;20292;-69
2024/01/16 05:02:28;;;;;;;9.48;4.80;;;-2.40;1.00;;;;;;7363751;19;20699;-69
2024/01/16 05:04:58;;;;;;;8.88;5.07;;;-2.40;1.00;;;;;;7369768;19;20006;-69
2024/01/16 05:07:29;;;;;;;7.93;4.88;;;-2.50;1.00;;;;;;7362543;19;20010;-68
2024/01/16 05:10:01;;;;;;;8.57;4.95;;;-2.50;1.00;;;;;;7367366;19;20017;-68
2024/01/16 05:12:31;;;;;;;7.72;4.85;;;-2.50;1.00;;;;;;7369216;19;20328;-70
2024/01/16 05:15:01;;;;;;;10.27;5.35;;;-2.50;1.00;;;;;;7370060;19;20014;-70
2024/01/16 05:17:32;;;;;;;11.27;4.88;;;-2.50;1.00;;;;;;7364522;19;20018;-69
2024/01/16 05:20:03;;;;;;;7.00;4.28;;;-2.50;1.00;;;;;;7370214;19;20106;-69
2024/01/16 05:22:33;;;;;;;12.18;4.65;;;-2.50;1.00;;;;;;7371034;19;20013;-70
2024/01/16 05:25:08;;;;;;;7.75;4.43;;;-2.40;1.00;;;;;;7371632;19;20010;-70
2024/01/16 05:27:38;;;;;;;8.85;5.05;;;-2.40;1.00;;;;;;7365010;19;20779;-69
2024/01/16 05:30:09;;;;;;;9.60;5.68;;;-2.40;1.00;;;;;;7369539;19;20057;-69
2024/01/16 05:32:39;;;;;;;11.75;5.25;;;-2.30;1.00;;;;;;7370430;19;20093;-68
2024/01/16 05:35:11;;;;;;;9.82;4.70;;;-2.30;1.00;;;;;;7369918;19;20390;-69
2024/01/16 05:37:41;;;;;;;6.97;4.80;;;-2.30;1.00;;;;;;7364629;19;20011;-69
2024/01/16 05:40:14;;;;;;;11.38;4.50;;;-2.30;1.00;;;;;;7370738;19;20045;-70
2024/01/16 05:42:44;;;;;;;9.80;5.25;;;-2.30;1.00;;;;;;7370821;19;20038;-69
2024/01/16 05:45:14;;;;;;;7.72;5.35;;;-2.30;1.00;;;;;;7370290;19;20010;-70
2024/01/16 05:47:44;;;;;;;9.38;4.95;;;-2.30;1.00;;;;;;7363704;19;20013;-69
2024/01/16 05:50:16;;;;;;;9.13;4.88;;;-2.40;1.00;;;;;;7373592;19;20053;-70
2024/01/16 05:52:46;;;;;;;10.88;5.18;;;-2.50;1.00;;;;;;7371966;19;20475;-69
2024/01/16 05:55:21;;;;;;;8.95;4.57;;;-2.50;1.00;;;;;;7370175;19;20014;-69
2024/01/16 05:57:51;;;;;;;9.98;4.97;;;-2.50;1.00;;;;;;7364160;19;20018;-69
2024/01/16 06:00:22;;;;;;;10.25;5.38;;;-2.50;1.00;;;;;;7368635;19;20034;-71
2024/01/16 06:02:52;;;;;;;11.10;4.50;;;-2.50;1.00;;;;;;7370757;19;20014;-68
2024/01/16 06:05:24;;;;;;;8.20;5.28;;;-2.50;1.00;;;;;;7366940;19;20006;-68
2024/01/16 06:07:54;;;;;;;9.85;5.13;;;-2.50;1.00;;;;;;7363535;19;20006;-69
2024/01/16 06:10:27;;;;;;;6.38;4.20;;;-2.40;1.00;;;;;;7368808;19;21463;-67
2024/01/16 06:12:57;;;;;;;9.95;4.70;;;-2.40;1.00;;;;;;7370168;19;20575;-69
2024/01/16 06:15:27;;;;;;;8.98;4.70;;;-2.30;1.00;;;;;;7370147;19;20616;-68
2024/01/16 06:17:57;;;;;;;8.10;4.65;;;-2.30;1.00;;;;;;7363557;19;20018;-69
2024/01/16 06:20:29;;;;;;;6.93;4.65;;;-2.30;1.00;;;;;;7368291;19;20010;-69
2024/01/16 06:22:59;;;;;;;7.18;4.63;;;-2.20;1.00;;;;;;7369436;19;20014;-69
2024/01/16 06:25:32;;;;;;;12.07;5.63;;;-2.20;1.00;;;;;;7366829;19;20010;-68
2024/01/16 06:28:03;;;;;;;10.93;5.25;;;-2.20;1.00;;;;;;7360163;19;20014;-70
2024/01/16 06:30:33;;;;;;;9.55;5.38;;;-2.20;1.00;;;;;;7365470;19;20014;-67
2024/01/16 06:33:03;;;;;;;8.00;4.75;;;-2.20;1.00;;;;;;7368690;19;20010;-70
2024/01/16 06:35:33;;;;;;;12.25;6.30;;;-2.20;1.00;;;;;;7363630;19;20027;-68
2024/01/16 06:38:04;;;;;;;14.75;5.28;;;-2.30;1.00;;;;;;7358500;19;20047;-69
2024/01/16 06:40:37;;;;;;;15.50;6.35;;;-2.30;1.00;;;;;;7367384;19;20017;-69
2024/01/16 06:43:07;;;;;;;14.07;5.38;;;-2.30;1.00;;;;;;7370082;19;20014;-67
2024/01/16 06:45:37;;;;;;;12.52;6.07;;;-2.30;1.00;;;;;;7368130;19;20022;-68
2024/01/16 06:48:07;;;;;;;10.52;5.30;;;-2.20;1.00;;;;;;7363526;19;20017;-69
2024/01/16 06:50:38;;;;;;;10.93;5.60;;;-2.20;1.00;;;;;;7366435;19;20007;-69
2024/01/16 06:53:08;;;;;;;7.82;4.80;;;-2.10;1.00;;;;;;7368439;19;20020;-69
2024/01/16 06:55:40;;;;;;;13.82;6.78;;;-2.10;1.00;;;;;;7368810;19;20689;-68
2024/01/16 06:58:10;;;;;;;11.77;6.10;;;-2.10;1.00;;;;;;7361407;19;20091;-70
2024/01/16 07:00:41;;;;;;;10.32;5.32;;;-2.10;1.00;;;;;;7368794;19;20007;-69
2024/01/16 07:03:11;;;;;;;9.75;5.90;;;-2.10;1.00;;;;;;7369715;19;20082;-69
2024/01/16 07:05:43;;;;;;;9.98;5.50;;;-2.10;1.00;;;;;;7360984;19;20090;-69
2024/01/16 07:08:13;;;;;;;12.45;5.60;;;-2.10;1.00;;;;;;7363242;19;20016;-69
2024/01/16 07:10:46;;;;;;;11.07;6.10;;;-2.10;1.00;;;;;;7365948;19;20076;-68
2024/01/16 07:13:16;;;;;;;12.05;6.32;;;-2.00;1.00;;;;;;7364788;19;20086;-68
2024/01/16 07:15:48;;;;;;;12.13;5.10;;;-2.00;1.00;;;;;;7363178;19;20018;-69
2024/01/16 07:18:18;;;;;;;7.75;4.97;;;-2.00;1.00;;;;;;7357519;19;20017;-68
2024/01/16 07:20:48;;;;;;;10.85;4.40;;;-2.00;1.00;;;;;;7364596;19;20017;-70
2024/01/16 07:23:19;;;;;;;6.72;4.10;;;-2.00;1.00;;;;;;7366085;19;20009;-69
2024/01/16 07:25:51;;;;;;;16.40;5.05;;;-1.90;1.00;;;;;;7365449;19;20020;-68
2024/01/16 07:28:22;;;;;;;9.77;5.30;;;-1.90;1.00;;;;;;7358566;19;20011;-68
2024/01/16 07:30:52;;;;;;;8.15;4.43;;;-2.00;1.00;;;;;;7365922;19;20025;-68
2024/01/16 07:33:22;;;;;;;10.15;4.40;;;-2.00;1.00;;;;;;7365173;19;20344;-68
2024/01/16 07:35:53;;;;;;;8.50;4.13;;;-2.00;1.00;;;;;;7368593;19;20006;-70
2024/01/16 07:38:23;;;;;;;8.90;4.82;;;-2.00;1.00;;;;;;7355652;19;20014;-71
2024/01/16 07:40:56;;;;;;;11.10;5.47;;;-2.00;1.00;;;;;;7365775;19;20383;-68
2024/01/16 07:43:26;;;;;;;6.90;3.63;;;-1.90;1.00;;;;;;7365578;19;20703;-68
2024/01/16 07:45:56;;;;;;;7.00;4.40;;;-2.00;1.00;;;;;;7364324;19;20944;-68
2024/01/16 07:48:26;;;;;;;10.77;4.93;;;-1.90;1.00;;;;;;7362125;19;20010;-68
2024/01/16 07:50:56;;;;;;;7.47;3.90;;;-2.00;1.00;;;;;;7377163;19;20070;-69
2024/01/16 07:53:27;;;;;;;9.57;4.07;;;-1.90;1.00;;;;;;7364104;19;20057;-69
2024/01/16 07:56:00;;;;;;;8.35;3.63;;;-1.90;1.00;;;;;;7364931;19;20035;-68
2024/01/16 07:58:30;;;;;;;8.93;3.90;;;-1.90;1.00;;;;;;7360220;19;20379;-69
2024/01/16 08:01:00;;;;;;;10.23;4.20;;;-1.90;1.00;;;;;;7364441;19;21294;-70
2024/01/16 08:03:30;;;;;;;7.70;3.80;;;-1.80;1.00;;;;;;7365840;19;20017;-69
2024/01/16 08:06:01;;;;;;;9.38;4.53;;;-1.80;1.00;;;;;;7369656;19;20010;-68
2024/01/16 08:08:33;;;;;;;10.20;4.53;;;-1.80;1.00;;;;;;7362240;19;20615;-69
2024/01/16 08:11:07;;;;;;;9.52;4.40;;;-1.70;1.00;;;;;;7365345;19;20007;-70
2024/01/16 08:13:37;;;;;;;8.07;4.00;;;-1.60;1.00;;;;;;7364042;19;20011;-69
2024/01/16 08:16:07;;;;;;;7.70;4.60;;;-1.60;1.00;;;;;;7362895;19;20010;-68
2024/01/16 08:18:41;;;;;;;9.63;4.82;;;-1.50;1.00;;;;;;7361137;19;20011;-69
2024/01/16 08:21:11;;;;;;;8.57;4.53;;;-1.40;1.00;;;;;;7363091;19;20392;-68
2024/01/16 08:23:41;;;;;;;9.80;4.65;;;-1.40;1.00;;;;;;7363284;19;20712;-68
2024/01/16 08:26:14;;;;;;;6.47;4.15;;;-1.30;1.00;;;;;;7362717;19;20022;-69
2024/01/16 08:28:44;;;;;;;9.65;4.97;;;-1.30;1.00;;;;;;7361068;19;20011;-68
2024/01/16 08:31:14;;;;;;;9.32;4.82;;;-1.30;1.00;;;;;;7364186;19;20002;-68
2024/01/16 08:33:44;;;;;;;30.02;17.88;;;-1.20;1.00;;;;;;7363756;19;20041;-71
2024/01/16 08:36:17;;;;;;;10.27;4.30;;;-1.10;1.00;;;;;;7361100;19;20010;-70
2024/01/16 08:38:47;;;;;;;6.55;4.38;;;-1.10;1.00;;;;;;7361533;19;20083;-69
2024/01/16 08:41:20;;;;;;;8.93;4.00;;;-1.10;1.00;;;;;;7363806;19;20007;-71
2024/01/16 08:43:50;;;;;;;7.75;4.10;;;-1.10;1.00;;;;;;7364511;19;20007;-68
2024/01/16 08:46:22;;;;;;;9.98;4.78;;;-1.10;1.00;;;;;;7361115;19;20063;-69
2024/01/16 08:48:52;;;;;;;7.88;4.20;;;-0.90;1.00;;;;;;7359985;19;20520;-70
2024/01/16 08:51:23;;;;;;;7.93;4.03;;;-0.90;1.00;;;;;;7362642;19;20014;-70
2024/01/16 08:53:53;;;;;;;6.82;4.70;;;-0.90;1.00;;;;;;7363535;19;20010;-70
2024/01/16 08:56:25;;;;;;;10.27;4.82;;;-0.90;1.00;;;;;;7359004;19;20031;-69
2024/01/16 08:58:56;;;;;;;8.60;4.15;;;-0.80;1.00;;;;;;7361835;19;20086;-69
2024/01/16 09:01:26;;;;;;;9.60;4.20;;;-0.70;1.00;;;;;;7362518;19;20015;-69
2024/01/16 09:03:56;;;;;;;7.55;4.22;;;-0.70;1.00;;;;;;7362475;19;20694;-69
2024/01/16 09:06:26;;;;;;;9.80;4.70;;;-0.60;1.00;;;;;;7359561;19;20014;-69
2024/01/16 09:08:56;;;;;;;9.38;4.90;;;-0.70;1.00;;;;;;7361795;19;20018;-68
2024/01/16 09:11:29;;;;;;;6.43;4.30;;;-0.60;1.00;;;;;;7361445;19;20522;-70
2024/01/16 09:13:59;;;;;;;10.85;4.32;;;-0.60;1.00;;;;;;7362663;19;20045;-70
2024/01/16 09:16:33;;;;;;;7.85;4.45;;;-0.50;1.00;;;;;;7358258;19;20015;-68
2024/01/16 09:19:03;;;;;;;9.63;4.13;;;-0.50;1.00;;;;;;7363343;19;20018;-67
2024/01/16 09:21:33;;;;;;;8.35;4.40;;;-0.50;1.00;;;;;;7362673;19;20379;-68
2024/01/16 09:24:03;;;;;;;8.90;4.53;;;-0.40;1.00;;;;;;7360648;19;20025;-69
2024/01/16 09:26:36;;;;;;;8.15;4.40;;;-0.30;1.00;;;;;;7357640;19;20015;-70
2024/01/16 09:29:06;;;;;;;8.52;4.28;;;-0.20;1.00;;;;;;7362984;19;20133;-69
2024/01/16 09:31:36;;;;;;;11.35;5.85;;;-0.20;1.00;;;;;;7361000;19;20010;-69
2024/01/16 09:34:06;;;;;;;10.48;5.53;;;-0.10;1.00;;;;;;7362453;19;20014;-69
2024/01/16 09:36:39;;;;;;;10.60;4.45;;;0.00;1.00;;;;;;7356819;19;20015;-71
2024/01/16 09:39:10;;;;;;;7.65;4.30;;;-0.20;1.00;;;;;;7360517;19;20010;-69
2024/01/16 09:41:50;;;;;;;6.47;3.70;;;-0.20;1.00;;;;;;7366423;19;20517;-68
2024/01/16 09:44:20;;;;;;;9.60;4.70;;;-0.20;1.00;;;;;;7362755;19;20100;-70
2024/01/16 09:46:52;;;;;;;9.55;4.80;;;-0.20;1.00;;;;;;7363694;19;20371;-69
2024/01/16 09:49:23;;;;;;;8.77;4.70;;;-0.10;1.00;;;;;;7369142;19;20010;-70
2024/01/16 09:51:53;;;;;;;10.32;5.10;;;0.00;1.00;;;;;;7368272;19;20018;-68
2024/01/16 09:54:23;;;;;;;8.38;4.15;;;0.20;1.00;;;;;;7367112;19;20021;-68
2024/01/16 09:56:59;;;;;;;10.25;4.88;;;0.20;1.00;;;;;;7363688;19;20512;-69
2024/01/16 09:59:33;;;;;;;8.20;4.78;;;0.30;1.00;;;;;;7368796;19;20014;-68
2024/01/16 10:02:06;;;;;;;10.63;5.10;;;0.30;1.00;;;;;;7368268;19;20062;-69
2024/01/16 10:04:37;;;;;;;10.32;5.45;;;0.50;1.00;;;;;;7368691;19;20010;-69
2024/01/16 10:07:07;;;;;;;8.73;4.90;;;0.60;1.00;;;;;;7361829;19;20607;-68
2024/01/16 10:09:37;;;;;;;8.30;4.30;;;0.60;1.00;;;;;;7368130;19;20010;-68
2024/01/16 10:12:11;;;;;;;8.25;4.85;;;0.50;1.00;;;;;;7368266;19;20037;-69
2024/01/16 10:14:43;;;;;;;9.45;4.10;;;0.50;1.00;;;;;;7365779;19;20124;-68
2024/01/16 10:17:15;;;;;;;8.00;4.72;;;0.60;1.00;;;;;;7360209;19;20094;-68
2024/01/16 10:19:54;;;;;;;10.02;4.70;;;0.70;1.00;;;;;;7366119;19;20031;-68
2024/01/16 10:22:27;;;;;;;7.68;4.50;;;0.70;1.00;;;;;;7370969;19;20029;-67
2024/01/16 10:25:16;;;;;;;9.10;4.43;;;0.70;1.00;;;;;;7366685;19;20491;-69
2024/01/16 10:27:50;;;;;;;8.70;4.38;;;0.70;1.00;;;;;;7360206;19;20068;-69
2024/01/16 10:30:26;;;;;;;10.32;4.88;;;0.70;1.00;;;;;;7364795;19;20014;-68
2024/01/16 10:32:57;;;;;;;9.05;5.00;;;0.80;1.00;;;;;;7366238;19;20014;-68
2024/01/16 10:35:27;;;;;;;10.07;4.70;;;0.80;1.00;;;;;;7366727;19;20465;-68
2024/01/16 10:37:58;;;;;;;12.00;5.00;;;0.80;1.00;;;;;;7361185;19;20017;-67
2024/01/16 10:40:29;;;;;;;8.75;4.57;;;0.80;1.00;;;;;;7365442;19;20498;-71
2024/01/16 10:43:05;;;;;;;9.90;4.32;;;1.00;1.00;;;;;;7366586;19;20014;-69
2024/01/16 10:45:36;;;;;;;;;;;1.20;1.00;;;;;;7366639;19;20047;-70
2024/01/16 10:48:07;;;;;;;23.60;4.60;;;1.30;1.00;;;;;;7359777;19;19931;-69
2024/01/16 10:50:40;;;;;;;16.98;5.47;;;1.30;1.00;;;;;;7363473;19;20113;-69
2024/01/16 10:53:11;;;;;;;12.30;5.18;;;1.40;1.00;;;;;;7365382;19;20939;-69
2024/01/16 10:55:52;;;;;;;9.35;4.30;;;1.30;1.00;;;;;;7365491;19;20082;-69
2024/01/16 10:58:26;;;;;;;14.38;4.78;;;1.40;1.00;;;;;;7362919;19;20017;-69
2024/01/16 11:00:56;;;;;;;13.02;4.65;;;1.50;1.00;;;;;;7364203;19;20839;-69
2024/01/16 11:03:32;;;;;;;9.05;4.03;;;1.80;1.00;;;;;;7367190;19;21121;-69
2024/01/16 11:06:03;;;;;;;7.95;4.00;;;2.00;1.00;;;;;;7366230;19;20041;-71
2024/01/16 11:08:35;;;;;;;13.98;7.35;;;1.90;1.00;;;;;;7360857;19;20043;-69
2024/01/16 11:11:07;;;;;;;9.05;4.45;;;2.40;1.00;;;;;;7364110;19;20042;-69
2024/01/16 11:13:44;;;;;;;11.90;4.40;;;2.30;1.00;;;;;;7365350;19;20003;-69
2024/01/16 11:16:14;;;;;;;13.68;4.80;;;1.90;1.00;;;;;;7365129;19;20016;-69
2024/01/16 11:18:44;;;;;;;14.25;5.05;;;1.70;1.00;;;;;;7365132;19;20026;-68
2024/01/16 11:21:16;;;;;;;13.00;5.38;;;2.10;1.00;;;;;;7367075;19;20097;-69
2024/01/16 11:23:49;;;;;;;12.77;4.75;;;2.10;1.00;;;;;;7365794;19;20979;-70
2024/01/16 11:26:30;;;;;;;20.45;5.45;;;2.00;1.00;;;;;;7362539;19;21308;-70
2024/01/16 11:29:09;;;;;;;13.02;5.18;;;1.90;1.00;;;;;;7362879;19;20011;-69
2024/01/16 11:31:39;;;;;;;10.65;4.78;;;1.90;1.00;;;;;;7364734;19;20081;-70
2024/01/16 11:34:09;;;;;;;19.13;6.07;;;2.00;1.00;;;;;;7364535;19;20124;-70
2024/01/16 11:36:56;;;;;;;10.20;5.50;;;2.00;1.00;;;;;;7360777;19;20033;-70
2024/01/16 11:39:27;;;;;;;20.90;6.35;;;2.20;1.00;;;;;;7365794;19;20671;-70
2024/01/16 11:41:59;;;;;;;11.48;5.10;;;2.40;1.00;;;;;;7366295;19;20022;-71
2024/01/16 11:44:46;;;;;;;11.90;5.18;;;2.20;1.00;;;;;;7365599;19;20022;-70
2024/01/16 11:47:20;;;;;;;9.68;4.90;;;2.30;1.00;;;;;;6851254;19;2004086;-69
2024/01/16 11:49:54;;;;;;;10.30;4.47;;;2.50;1.00;;;;;;7363962;19;20039;-69
2024/01/16 11:52:42;;;;;;;14.15;5.78;;;2.30;1.00;;;;;;7365858;19;20014;-70
2024/01/16 11:55:28;;;;;;;13.32;5.28;;;2.40;1.00;;;;;;6855033;19;2004096;-70
2024/01/16 11:58:29;;;;;;;13.07;4.72;;;2.50;1.00;;;;;;7364645;19;20015;-69
2024/01/16 12:01:04;;;;;;;13.90;4.70;;;2.50;1.00;;;;;;6854718;19;2004159;-69
2024/01/16 12:03:35;;;;;;;9.82;4.22;;;2.40;1.00;;;;;;7358576;19;20010;-71
2024/01/16 12:06:06;;;;;;;8.85;4.40;;;2.00;1.00;;;;;;7365406;19;20014;-70
2024/01/16 12:08:38;;;;;;;8.80;4.25;;;2.30;1.00;;;;;;7363504;19;20018;-70
2024/01/16 12:11:09;;;;;;;11.43;4.80;;;2.70;1.00;;;;;;7363344;19;20015;-70
2024/01/16 12:13:39;;;;;;;9.43;4.30;;;2.50;1.00;;;;;;7365795;19;20066;-69
2024/01/16 12:16:12;;;;;;;9.80;4.53;;;2.80;1.00;;;;;;7363457;19;20388;-70
2024/01/16 12:18:42;;;;;;;8.30;3.78;;;2.90;1.00;;;;;;7365843;19;20010;-70
2024/01/16 12:21:16;;;;;;;11.45;3.75;;;3.10;1.00;;;;;;7365298;19;20015;-70
2024/01/16 12:23:46;;;;;;;6.30;3.25;;;3.00;1.00;;;;;;7364171;19;20407;-70
2024/01/16 12:26:29;;;;;;;10.02;3.20;;;2.80;1.00;;;;;;7360904;19;20786;-69
2024/01/16 12:28:59;;;;;;;10.07;3.63;;;2.60;1.00;;;;;;7364001;19;20014;-68
2024/01/16 12:31:32;;;;;;;5.68;3.35;;;2.50;1.00;;;;;;7364497;19;20002;-69
2024/01/16 12:34:08;;;;;;;9.07;3.28;;;2.50;1.00;;;;;;7373554;19;20010;-69
2024/01/16 12:36:40;;;;;;;9.82;3.63;;;2.80;1.00;;;;;;7364537;19;20014;-69
2024/01/16 12:39:12;;;;;;;6.75;3.67;;;2.60;1.00;;;;;;7357472;19;20029;-69
2024/01/16 12:41:46;;;;;;;11.10;3.97;;;2.90;1.00;;;;;;7361924;19;20017;-69
2024/01/16 12:44:16;;;;;;;10.73;4.03;;;2.80;1.00;;;;;;7364809;19;20609;-70
2024/01/16 12:46:57;;;;;;;11.02;4.60;;;2.80;1.00;;;;;;7362320;19;20014;-70
2024/01/16 12:49:27;;;;;;;8.25;3.92;;;2.50;1.00;;;;;;7364970;19;20027;-70
2024/01/16 12:52:20;;;;;;;8.10;3.97;;;2.50;1.00;;;;;;7362021;19;20042;-70
2024/01/16 12:54:51;;;;;;;13.93;3.50;;;2.50;1.00;;;;;;6853918;19;2004143;-70
2024/01/16 12:57:22;;;;;;;7.88;4.13;;;2.40;1.00;;;;;;7362434;19;20014;-70
2024/01/16 12:59:52;;;;;;;14.57;4.75;;;2.30;1.00;;;;;;7363673;19;20053;-69
2024/01/16 13:02:27;;;;;;;16.38;4.60;;;2.10;1.00;;;;;;7363727;19;20014;-68
2024/01/16 13:05:02;;;;;;;10.95;4.47;;;2.10;1.00;;;;;;7364486;19;20577;-69
2024/01/16 13:07:33;;;;;;;8.73;4.60;;;2.10;1.00;;;;;;7362104;19;20022;-70
2024/01/16 13:10:11;;;;;;;11.60;4.50;;;1.90;1.00;;;;;;7363869;19;20014;-70
2024/01/16 13:12:42;;;;;;;8.20;4.28;;;1.90;1.00;;;;;;7364370;19;20041;-71
2024/01/16 13:15:16;;;;;;;11.90;4.70;;;1.90;1.00;;;;;;7366243;19;20010;-69
2024/01/16 13:17:50;;;;;;;16.27;4.82;;;1.80;1.00;;;;;;7368541;19;20011;-71